Time;durP1;ratioP1;P1;durP2;ratioP2;P2;SDS_P1;SDS_P2;PMS_P1;PMS_P2;Temp;Humidity;BMP_temperature;BMP_pressure;BME280_temperature;BME280_humidity;BME280_pressure;Samples;Min_cycle;Max_cycle;Signal;HPM_P1;HPM_P2
2022/05/30 00:02:16;;;;;;;;;;;;;;;;;;4961368;28;19910;-87
2022/05/30 00:04:42;;;;;;;;;;;;;;;;;;5011125;28;20020;-85
2022/05/30 00:07:10;;;;;;;;;;;;;;;;;;4980846;28;20428;-87
2022/05/30 00:09:36;;;;;;;;;;;;;;;;;;4989733;28;19914;-86
2022/05/30 00:12:01;;;;;;;;;;;;;;;;;;4994101;28;19914;-87
2022/05/30 00:14:27;;;;;;;;;;;;;;;;;;4950507;28;20415;-86
2022/05/30 00:16:52;;;;;;;;;;;;;;;;;;4982555;28;19910;-86
2022/05/30 00:19:17;;;;;;;;;;;;;;;;;;4948831;28;19953;-85
2022/05/30 00:21:44;;;;;;;;;;;;;;;;;;4953126;28;19910;-84
2022/05/30 00:24:09;;;;;;;;;;;;;;;;;;4967386;28;19910;-83
2022/05/30 00:26:34;;;;;;;;;;;;;;;;;;4985871;28;19917;-85
2022/05/30 00:29:00;;;;;;;;;;;;;;;;;;4982504;28;20428;-85
2022/05/30 00:31:25;;;;;;;;;;;;;;;;;;4949031;29;19910;-85
2022/05/30 00:33:51;;;;;;;;;;;;;;;;;;4957386;28;19913;-85
2022/05/30 00:36:16;;;;;;;;;;;;;;;;;;4941741;28;19912;-85
2022/05/30 00:38:41;;;;;;;;;;;;;;;;;;4966254;28;19922;-85
2022/05/30 00:41:07;;;;;;;;;;;;;;;;;;4975793;28;20457;-85
2022/05/30 00:43:32;;;;;;;;;;;;;;;;;;4961745;28;20005;-83
2022/05/30 00:45:58;;;;;;;;;;;;;;;;;;4966132;28;19958;-84
2022/05/30 00:48:23;;;;;;;;;;;;;;;;;;4948882;29;19914;-84
2022/05/30 00:50:49;;;;;;;;;;;;;;;;;;4969811;28;20398;-84
2022/05/30 00:53:14;;;;;;;;;;;;;;;;;;4955234;28;19963;-84
2022/05/30 00:55:39;;;;;;;;;;;;;;;;;;4946992;28;19910;-84
2022/05/30 00:58:06;;;;;;;;;;;;;;;;;;4975527;28;20000;-84
2022/05/30 01:00:31;;;;;;;;;;;;;;;;;;4966506;28;19910;-84
2022/05/30 01:08:26;;;;;;;;;;;;;;;;;;4965699;28;19949;-83
2022/05/30 01:10:51;;;;;;;;;;;;;;;;;;4970026;28;20434;-84
2022/05/30 01:13:16;;;;;;;;;;;;;;;;;;5009453;28;20368;-84
2022/05/30 01:15:42;;;;;;;;;;;;;;;;;;4982783;28;20017;-83
2022/05/30 01:18:07;;;;;;;;;;;;;;;;;;4980343;28;19937;-84
2022/05/30 01:20:32;;;;;;;;;;;;;;;;;;4965036;28;19916;-84
2022/05/30 01:22:58;;;;;;;;;;;;;;;;;;4962910;28;19913;-85
2022/05/30 01:25:26;;;;;;;;;;;;;;;;;;4976347;28;19965;-86
2022/05/30 01:28:03;;;;;;;;;;;;;;;;;;4966306;28;19906;-84
2022/05/30 01:30:30;;;;;;;;;;;;;;;;;;4959626;28;19914;-86
2022/05/30 01:32:55;;;;;;;;;;;;;;;;;;4973007;28;19916;-84
2022/05/30 01:35:21;;;;;;;;;;;;;;;;;;4982924;28;19917;-84
2022/05/30 01:37:46;;;;;;;;;;;;;;;;;;4981438;28;20261;-84
2022/05/30 01:40:11;;;;;;;;;;;;;;;;;;4981976;28;20004;-84
2022/05/30 01:42:37;;;;;;;;;;;;;;;;;;4982860;28;20399;-84
2022/05/30 01:45:02;;;;;;;;;;;;;;;;;;4971075;28;19932;-84
2022/05/30 01:47:28;;;;;;;;;;;;;;;;;;4993326;28;20372;-85
2022/05/30 01:49:54;;;;;;;;;;;;;;;;;;4984607;28;19993;-85
2022/05/30 01:52:28;;;;;;;;;;;;;;;;;;4980716;28;20182;-83
2022/05/30 01:54:55;;;;;;;;;;;;;;;;;;4944369;28;19977;-84
2022/05/30 01:57:39;;;;;;;;;;;;;;;;;;4987711;28;19929;-85
2022/05/30 02:00:28;;;;;;;;;;;;;;;;;;4973435;28;20481;-83
2022/05/30 02:02:53;;;;;;;;;;;;;;;;;;4968471;28;19980;-84
2022/05/30 02:05:19;;;;;;;;;;;;;;;;;;4968706;28;19910;-84
2022/05/30 02:07:44;;;;;;;;;;;;;;;;;;4994841;28;20297;-85
2022/05/30 02:10:12;;;;;;;;;;;;;;;;;;4966789;28;20377;-85
2022/05/30 02:12:39;;;;;;;;;;;;;;;;;;4984940;28;19909;-85
2022/05/30 02:15:27;;;;;;;;;;;;;;;;;;4998109;28;19920;-84
2022/05/30 02:17:57;;;;;;;;;;;;;;;;;;4979949;28;19913;-84
2022/05/30 02:20:22;;;;;;;;;;;;;;;;;;4996420;28;19909;-86
2022/05/30 02:22:47;;;;;;;;;;;;;;;;;;4975841;28;19920;-85
2022/05/30 02:25:16;;;;;;;;;;;;;;;;;;4968559;28;19917;-85
2022/05/30 02:27:42;;;;;;;;;;;;;;;;;;4974042;28;19916;-85
2022/05/30 02:30:09;;;;;;;;;;;;;;;;;;4977267;28;19914;-85
2022/05/30 02:32:34;;;;;;;;;;;;;;;;;;4945186;28;20438;-85
2022/05/30 02:37:44;;;;;;;;;;;;;;;;;;4961497;28;19913;-84
2022/05/30 02:40:29;;;;;;;;;;;;;;;;;;4983909;28;19910;-85
2022/05/30 02:43:17;;;;;;;;;;;;;;;;;;4977417;28;19944;-84
2022/05/30 02:45:44;;;;;;;;;;;;;;;;;;4969374;28;19949;-84
2022/05/30 02:48:10;;;;;;;;;;;;;;;;;;4977232;28;19910;-85
2022/05/30 02:50:35;;;;;;;;;;;;;;;;;;4976875;28;20373;-85
2022/05/30 02:53:02;;;;;;;;;;;;;;;;;;4957082;28;19956;-85
2022/05/30 02:55:53;;;;;;;;;;;;;;;;;;4964917;28;19917;-83
2022/05/30 02:58:19;;;;;;;;;;;;;;;;;;4944786;28;19909;-84
2022/05/30 03:00:44;;;;;;;;;;;;;;;;;;4976851;28;19949;-84
2022/05/30 03:03:10;;;;;;;;;;;;;;;;;;4977178;28;20491;-83
2022/05/30 03:05:35;;;;;;;;;;;;;;;;;;4977241;28;19992;-84
2022/05/30 03:08:03;;;;;;;;;;;;;;;;;;4961273;28;20377;-84
2022/05/30 03:10:54;;;;;;;;;;;;;;;;;;4969117;28;19910;-84
2022/05/30 03:13:20;;;;;;;;;;;;;;;;;;4976892;28;19916;-84
2022/05/30 03:15:45;;;;;;;;;;;;;;;;;;4960592;28;20003;-84
2022/05/30 03:18:10;;;;;;;;;;;;;;;;;;4976850;28;20018;-85
2022/05/30 03:20:36;;;;;;;;;;;;;;;;;;4944373;28;20377;-83
2022/05/30 03:23:03;;;;;;;;;;;;;;;;;;4976244;28;20399;-83
2022/05/30 03:25:41;;;;;;;;;;;;;;;;;;4960251;28;20320;-83
2022/05/30 03:28:06;;;;;;;;;;;;;;;;;;4946568;28;19910;-85
2022/05/30 03:30:36;;;;;;;;;;;;;;;;;;4956834;28;19913;-85
2022/05/30 03:33:02;;;;;;;;;;;;;;;;;;4967222;28;19914;-84
2022/05/30 03:35:27;;;;;;;;;;;;;;;;;;4943869;28;20304;-84
2022/05/30 03:38:06;;;;;;;;;;;;;;;;;;4944537;28;19993;-85
2022/05/30 03:41:10;;;;;;;;;;;;;;;;;;4883711;29;19911;-83
2022/05/30 03:43:43;;;;;;;;;;;;;;;;;;4891933;29;19967;-82
2022/05/30 03:46:09;;;;;;;;;;;;;;;;;;4922838;28;20328;-84
2022/05/30 03:48:34;;;;;;;;;;;;;;;;;;4948133;28;20324;-84
2022/05/30 03:51:01;;;;;;;;;;;;;;;;;;4973135;28;19913;-85
2022/05/30 03:53:26;;;;;;;;;;;;;;;;;;4981247;28;19909;-85
2022/05/30 03:55:52;;;;;;;;;;;;;;;;;;4959612;28;19982;-84
2022/05/30 03:58:17;;;;;;;;;;;;;;;;;;4990419;28;19909;-85
2022/05/30 04:00:44;;;;;;;;;;;;;;;;;;4978711;28;20383;-84
2022/05/30 04:03:11;;;;;;;;;;;;;;;;;;4972425;28;19909;-85
2022/05/30 04:05:36;;;;;;;;;;;;;;;;;;4949878;28;20329;-85
2022/05/30 04:08:02;;;;;;;;;;;;;;;;;;4984422;28;19909;-85
2022/05/30 04:10:45;;;;;;;;;;;;;;;;;;4995170;28;19914;-85
2022/05/30 04:13:29;;;;;;;;;;;;;;;;;;4998094;28;19909;-85
2022/05/30 04:16:13;;;;;;;;;;;;;;;;;;4969430;28;19917;-85
2022/05/30 04:18:39;;;;;;;;;;;;;;;;;;4985216;28;19953;-84
2022/05/30 04:21:05;;;;;;;;;;;;;;;;;;4994152;28;20265;-83
2022/05/30 04:23:30;;;;;;;;;;;;;;;;;;5005083;28;19910;-83
2022/05/30 04:25:59;;;;;;;;;;;;;;;;;;4979127;28;19951;-84
2022/05/30 04:28:25;;;;;;;;;;;;;;;;;;4965593;28;19909;-83
2022/05/30 04:31:10;;;;;;;;;;;;;;;;;;4947696;28;20030;-84
2022/05/30 04:33:36;;;;;;;;;;;;;;;;;;5002510;28;19917;-84
2022/05/30 04:36:04;;;;;;;;;;;;;;;;;;4976054;28;19909;-85
2022/05/30 04:38:30;;;;;;;;;;;;;;;;;;4944534;28;19909;-83
2022/05/30 04:41:25;;;;;;;;;;;;;;;;;;5006727;28;19922;-84
2022/05/30 04:44:09;;;;;;;;;;;;;;;;;;4963694;28;19932;-85
2022/05/30 04:47:04;;;;;;;;;;;;;;;;;;4966372;28;19938;-84
2022/05/30 04:49:30;;;;;;;;;;;;;;;;;;4967396;28;20435;-84
2022/05/30 04:51:55;;;;;;;;;;;;;;;;;;4980530;28;19913;-83
2022/05/30 04:54:20;;;;;;;;;;;;;;;;;;4990325;28;19913;-84
2022/05/30 04:57:00;;;;;;;;;;;;;;;;;;4987794;28;19909;-84
2022/05/30 04:59:29;;;;;;;;;;;;;;;;;;4992830;28;19924;-84
2022/05/30 05:02:00;;;;;;;;;;;;;;;;;;4983324;28;20361;-84
2022/05/30 05:04:28;;;;;;;;;;;;;;;;;;4974157;28;19917;-83
2022/05/30 05:06:53;;;;;;;;;;;;;;;;;;4965802;28;19910;-84
2022/05/30 05:09:19;;;;;;;;;;;;;;;;;;4991722;28;19920;-83
2022/05/30 05:12:04;;;;;;;;;;;;;;;;;;5012029;28;20030;-84
2022/05/30 05:14:59;;;;;;;;;;;;;;;;;;4942808;28;20001;-84
2022/05/30 05:17:43;;;;;;;;;;;;;;;;;;4997480;28;19910;-84
2022/05/30 05:20:08;;;;;;;;;;;;;;;;;;4980799;28;19909;-85
2022/05/30 05:22:34;;;;;;;;;;;;;;;;;;4971741;28;19944;-84
2022/05/30 05:24:59;;;;;;;;;;;;;;;;;;4989907;28;20324;-85
2022/05/30 05:27:57;;;;;;;;;;;;;;;;;;4960187;28;19913;-85
2022/05/30 05:30:22;;;;;;;;;;;;;;;;;;4992326;28;19913;-84
2022/05/30 05:32:48;;;;;;;;;;;;;;;;;;4970395;28;19979;-84
2022/05/30 05:35:14;;;;;;;;;;;;;;;;;;4986858;28;20356;-85
2022/05/30 05:37:39;;;;;;;;;;;;;;;;;;4971051;28;19956;-85
2022/05/30 05:40:24;;;;;;;;;;;;;;;;;;4985234;28;19917;-85
2022/05/30 05:42:49;;;;;;;;;;;;;;;;;;4955264;28;19913;-84
2022/05/30 05:45:15;;;;;;;;;;;;;;;;;;4968386;28;19953;-83
2022/05/30 05:47:40;;;;;;;;;;;;;;;;;;4977894;28;19916;-84
2022/05/30 05:50:06;;;;;;;;;;;;;;;;;;4992010;23;19922;-84
2022/05/30 05:52:32;;;;;;;;;;;;;;;;;;5013542;28;19963;-85
2022/05/30 05:55:04;;;;;;;;;;;;;;;;;;5023775;28;19917;-83
2022/05/30 05:57:31;;;;;;;;;;;;;;;;;;5006040;28;20383;-79
2022/05/30 05:59:57;;;;;;;;;;;;;;;;;;4996962;28;19910;-79
2022/05/30 06:02:23;;;;;;;;;;;;;;;;;;5010608;28;20265;-78
2022/05/30 06:04:52;;;;;;;;;;;;;;;;;;5005117;28;19917;-78
2022/05/30 06:07:20;;;;;;;;;;;;;;;;;;5008180;28;19932;-77
2022/05/30 06:10:12;;;;;;;;;;;;;;;;;;5005674;28;19921;-79
2022/05/30 06:12:42;;;;;;;;;;;;;;;;;;5016582;28;19916;-79
2022/05/30 06:15:07;;;;;;;;;;;;;;;;;;5009189;28;20311;-79
2022/05/30 06:17:42;;;;;;;;;;;;;;;;;;4987123;28;19917;-80
2022/05/30 06:20:07;;;;;;;;;;;;;;;;;;5010379;28;19910;-78
2022/05/30 06:22:33;;;;;;;;;;;;;;;;;;5001315;28;19960;-78
2022/05/30 06:24:58;;;;;;;;;;;;;;;;;;5004026;28;19909;-78
2022/05/30 06:27:44;;;;;;;;;;;;;;;;;;4999103;28;19952;-78
2022/05/30 06:30:35;;;;;;;;;;;;;;;;;;4985385;28;20036;-77
2022/05/30 06:33:01;;;;;;;;;;;;;;;;;;4988532;28;20382;-78
2022/05/30 06:35:46;;;;;;;;;;;;;;;;;;4999422;28;19968;-78
2022/05/30 06:38:13;;;;;;;;;;;;;;;;;;4981048;28;19910;-79
2022/05/30 06:40:40;;;;;;;;;;;;;;;;;;5007615;28;19909;-78
2022/05/30 06:43:16;;;;;;;;;;;;;;;;;;5002423;28;19909;-79
2022/05/30 06:46:02;;;;;;;;;;;;;;;;;;4978291;28;19910;-78
2022/05/30 06:48:46;;;;;;;;;;;;;;;;;;4989725;28;19909;-79
2022/05/30 06:51:26;;;;;;;;;;;;;;;;;;4967875;28;20364;-78
2022/05/30 06:53:52;;;;;;;;;;;;;;;;;;4993810;28;20035;-78
2022/05/30 06:56:18;;;;;;;;;;;;;;;;;;4963819;28;20007;-78
2022/05/30 06:58:43;;;;;;;;;;;;;;;;;;4998416;28;20501;-76
2022/05/30 07:01:09;;;;;;;;;;;;;;;;;;4994036;28;20294;-80
2022/05/30 07:03:57;;;;;;;;;;;;;;;;;;4982721;28;19909;-78
2022/05/30 07:06:58;;;;;;;;;;;;;;;;;;4942466;29;19911;-78
2022/05/30 07:09:41;;;;;;;;;;;;;;;;;;4958127;28;19914;-78
2022/05/30 07:12:29;;;;;;;;;;;;;;;;;;4979964;28;19910;-79
2022/05/30 07:14:55;;;;;;;;;;;;;;;;;;5004571;28;20396;-77
2022/05/30 07:17:20;;;;;;;;;;;;;;;;;;4998478;28;19992;-78
2022/05/30 07:19:46;;;;;;;;;;;;;;;;;;4997378;28;19957;-78
2022/05/30 07:22:13;;;;;;;;;;;;;;;;;;4980522;28;19916;-79
2022/05/30 07:24:57;;;;;;;;;;;;;;;;;;4971059;28;20397;-79
2022/05/30 07:27:47;;;;;;;;;;;;;;;;;;4992276;28;19940;-79
2022/05/30 07:30:51;;;;;;;;;;;;;;;;;;4907602;29;19915;-76
2022/05/30 07:33:35;;;;;;;;;;;;;;;;;;4942031;29;19914;-78
2022/05/30 07:36:39;;;;;;;;;;;;;;;;;;4935055;29;19914;-77
2022/05/30 07:39:15;;;;;;;;;;;;;;;;;;4946631;29;19921;-77
2022/05/30 07:42:02;;;;;;;;;;;;;;;;;;4966863;28;19979;-77
2022/05/30 07:44:47;;;;;;;;;;;;;;;;;;5004212;28;20008;-78
2022/05/30 07:47:31;;;;;;;;;;;;;;;;;;4982361;28;20436;-77
2022/05/30 07:50:17;;;;;;;;;;;;;;;;;;4983149;28;19921;-77
2022/05/30 07:53:02;;;;;;;;;;;;;;;;;;4997922;28;19916;-78
2022/05/30 07:55:45;;;;;;;;;;;;;;;;;;4969491;28;19914;-78
2022/05/30 07:58:11;;;;;;;;;;;;;;;;;;4978189;28;19910;-78
2022/05/30 08:00:37;;;;;;;;;;;;;;;;;;4995910;28;20269;-77
2022/05/30 08:03:11;;;;;;;;;;;;;;;;;;5011537;28;19956;-79
2022/05/30 08:05:39;;;;;;;;;;;;;;;;;;4997284;28;19909;-79
2022/05/30 08:08:33;;;;;;;;;;;;;;;;;;5010827;28;19916;-81
2022/05/30 08:10:59;;;;;;;;;;;;;;;;;;4988895;28;19921;-80
2022/05/30 08:13:26;;;;;;;;;;;;;;;;;;4999594;28;19916;-78
2022/05/30 08:15:58;;;;;;;;;;;;;;;;;;5009267;28;19906;-79
2022/05/30 08:18:32;;;;;;;;;;;;;;;;;;4967565;28;19964;-79
2022/05/30 08:21:00;;;;;;;;;;;;;;;;;;5000296;28;20462;-79
2022/05/30 08:23:27;;;;;;;;;;;;;;;;;;5005779;28;20342;-78
2022/05/30 08:25:55;;;;;;;;;;;;;;;;;;4978327;28;19962;-80
2022/05/30 08:28:23;;;;;;;;;;;;;;;;;;4982175;28;20175;-78
2022/05/30 08:30:49;;;;;;;;;;;;;;;;;;4984328;28;20155;-78
2022/05/30 08:33:35;;;;;;;;;;;;;;;;;;4976042;28;19913;-78
2022/05/30 08:36:19;;;;;;;;;;;;;;;;;;4978268;28;19914;-78
2022/05/30 08:38:45;;;;;;;;;;;;;;;;;;4998589;28;19913;-80
2022/05/30 08:44:16;;;;;;;;;;;;;;;;;;4987845;28;20059;-79
2022/05/30 08:46:57;;;;;;;;;;;;;;;;;;4964357;28;19910;-78
2022/05/30 08:49:26;;;;;;;;;;;;;;;;;;4985430;28;20476;-80
2022/05/30 08:51:52;;;;;;;;;;;;;;;;;;4991674;28;20300;-79
2022/05/30 08:54:17;;;;;;;;;;;;;;;;;;5013302;28;19915;-79
2022/05/30 08:56:54;;;;;;;;;;;;;;;;;;5004146;28;19951;-78
2022/05/30 08:59:48;;;;;;;;;;;;;;;;;;4995795;28;19909;-78
2022/05/30 09:02:15;;;;;;;;;;;;;;;;;;4962954;28;19913;-79
2022/05/30 09:04:51;;;;;;;;;;;;;;;;;;5004337;28;19905;-79
2022/05/30 09:07:17;;;;;;;;;;;;;;;;;;4984432;28;19917;-79
2022/05/30 09:09:44;;;;;;;;;;;;;;;;;;5004753;28;19913;-79
2022/05/30 09:12:25;;;;;;;;;;;;;;;;;;5000526;28;19909;-78
2022/05/30 09:15:04;;;;;;;;;;;;;;;;;;5014248;28;20005;-79
2022/05/30 09:17:30;;;;;;;;;;;;;;;;;;4985961;28;19944;-79
2022/05/30 09:19:55;;;;;;;;;;;;;;;;;;4993870;28;19952;-79
2022/05/30 09:22:24;;;;;;;;;;;;;;;;;;4979959;28;19909;-80
2022/05/30 09:27:48;;;;;;;;;;;;;;;;;;4977425;28;20005;-79
2022/05/30 09:30:32;;;;;;;;;;;;;;;;;;4989711;28;19940;-79
2022/05/30 09:33:33;;;;;;;;;;;;;;;;;;4976648;28;19917;-78
2022/05/30 09:36:22;;;;;;;;;;;;;;;;;;4956505;28;19909;-78
2022/05/30 09:39:07;;;;;;;;;;;;;;;;;;4985979;28;19960;-77
2022/05/30 09:41:36;;;;;;;;;;;;;;;;;;5010955;28;19910;-79
2022/05/30 09:44:05;;;;;;;;;;;;;;;;;;4997242;28;19913;-77
2022/05/30 09:46:33;;;;;;;;;;;;;;;;;;5010827;28;19909;-77
2022/05/30 09:49:17;;;;;;;;;;;;;;;;;;5003448;28;19913;-78
2022/05/30 09:51:43;;;;;;;;;;;;;;;;;;5012228;28;19914;-80
2022/05/30 09:54:11;;;;;;;;;;;;;;;;;;4981944;28;19916;-80
2022/05/30 09:56:36;;;;;;;;;;;;;;;;;;4989759;28;20376;-79
2022/05/30 09:59:01;;;;;;;;;;;;;;;;;;4988783;28;19998;-78
2022/05/30 10:01:48;;;;;;;;;;;;;;;;;;4978544;28;19958;-81
2022/05/30 10:04:15;;;;;;;;;;;;;;;;;;4983622;28;19920;-80
2022/05/30 10:06:56;;;;;;;;;;;;;;;;;;4998802;28;20013;-80
2022/05/30 10:09:28;;;;;;;;;;;;;;;;;;4991960;28;20004;-80
2022/05/30 10:12:03;;;;;;;;;;;;;;;;;;4981134;28;20004;-79
2022/05/30 10:14:32;;;;;;;;;;;;;;;;;;4990459;28;19910;-80
2022/05/30 10:17:13;;;;;;;;;;;;;;;;;;4987652;28;20415;-80
2022/05/30 10:19:38;;;;;;;;;;;;;;;;;;5002192;28;20001;-80
2022/05/30 10:28:49;;;;;;;;;;;;;;;;;;4957980;28;19910;-80
2022/05/30 10:31:33;;;;;;;;;;;;;;;;;;4956565;28;19914;-80
2022/05/30 10:34:04;;;;;;;;;;;;;;;;;;4994868;28;19964;-80
2022/05/30 10:36:32;;;;;;;;;;;;;;;;;;5025271;28;19909;-80
2022/05/30 10:38:58;;;;;;;;;;;;;;;;;;4964790;28;20357;-82
2022/05/30 10:41:24;;;;;;;;;;;;;;;;;;4987544;28;19953;-80
2022/05/30 10:43:49;;;;;;;;;;;;;;;;;;5008047;28;19933;-80
2022/05/30 10:46:18;;;;;;;;;;;;;;;;;;5004775;28;20376;-79
2022/05/30 10:48:44;;;;;;;;;;;;;;;;;;4997425;28;19959;-81
2022/05/30 10:51:10;;;;;;;;;;;;;;;;;;5003306;28;19913;-82
2022/05/30 10:53:35;;;;;;;;;;;;;;;;;;5000236;28;20426;-80
2022/05/30 10:56:21;;;;;;;;;;;;;;;;;;4986391;28;20266;-80
2022/05/30 10:58:47;;;;;;;;;;;;;;;;;;4970135;28;19913;-80
2022/05/30 11:01:14;;;;;;;;;;;;;;;;;;5004110;28;19912;-80
2022/05/30 11:03:40;;;;;;;;;;;;;;;;;;4999476;28;19910;-80
2022/05/30 11:06:06;;;;;;;;;;;;;;;;;;5002498;28;19967;-81
2022/05/30 11:08:32;;;;;;;;;;;;;;;;;;4992962;28;19909;-81
2022/05/30 11:11:00;;;;;;;;;;;;;;;;;;4969350;28;19914;-81
2022/05/30 11:13:25;;;;;;;;;;;;;;;;;;4990670;28;19910;-82
2022/05/30 11:16:11;;;;;;;;;;;;;;;;;;4997524;28;19975;-81
2022/05/30 11:18:54;;;;;;;;;;;;;;;;;;5003942;28;19910;-80
2022/05/30 11:21:40;;;;;;;;;;;;;;;;;;4979288;28;19910;-81
2022/05/30 11:24:06;;;;;;;;;;;;;;;;;;5005288;28;19921;-81
2022/05/30 11:26:32;;;;;;;;;;;;;;;;;;5009563;28;20035;-81
2022/05/30 11:28:57;;;;;;;;;;;;;;;;;;4995286;28;20323;-81
2022/05/30 11:31:22;;;;;;;;;;;;;;;;;;4966252;28;20304;-80
2022/05/30 11:33:48;;;;;;;;;;;;;;;;;;4993105;28;19913;-81
2022/05/30 11:36:13;;;;;;;;;;;;;;;;;;4981014;28;19924;-81
2022/05/30 11:38:39;;;;;;;;;;;;;;;;;;4990375;28;19916;-80
2022/05/30 11:41:04;;;;;;;;;;;;;;;;;;4988430;28;19913;-81
2022/05/30 11:43:30;;;;;;;;;;;;;;;;;;5001491;28;20335;-80
2022/05/30 11:45:55;;;;;;;;;;;;;;;;;;4989471;28;19999;-80
2022/05/30 11:48:21;;;;;;;;;;;;;;;;;;4968728;28;20011;-81
2022/05/30 11:50:47;;;;;;;;;;;;;;;;;;4974026;28;19924;-79
2022/05/30 11:53:12;;;;;;;;;;;;;;;;;;5035487;22;19920;-84
2022/05/30 11:55:38;;;;;;;;;;;;;;;;;;5003274;28;19909;-85
2022/05/30 11:58:06;;;;;;;;;;;;;;;;;;5041816;28;19917;-85
2022/05/30 12:00:34;;;;;;;;;;;;;;;;;;5003734;28;19960;-82
2022/05/30 12:03:00;;;;;;;;;;;;;;;;;;4992335;28;19916;-84
2022/05/30 12:05:25;;;;;;;;;;;;;;;;;;5009699;28;19909;-86
2022/05/30 12:07:53;;;;;;;;;;;;;;;;;;5014037;28;20273;-86
2022/05/30 12:10:19;;;;;;;;;;;;;;;;;;5008232;28;19936;-87
2022/05/30 12:12:45;;;;;;;;;;;;;;;;;;5014512;28;20262;-85
2022/05/30 12:15:10;;;;;;;;;;;;;;;;;;5020135;28;19916;-88
2022/05/30 12:17:36;;;;;;;;;;;;;;;;;;5001406;28;19921;-86
2022/05/30 12:25:30;;;;;;;;;;;;;;;;;;5002262;28;19909;-85
2022/05/30 12:27:56;;;;;;;;;;;;;;;;;;4964470;28;20280;-85
2022/05/30 12:30:21;;;;;;;;;;;;;;;;;;4990648;28;19913;-85
2022/05/30 12:32:46;;;;;;;;;;;;;;;;;;4985736;28;19912;-86
2022/05/30 12:35:12;;;;;;;;;;;;;;;;;;5007281;28;19909;-85
2022/05/30 12:37:37;;;;;;;;;;;;;;;;;;5019602;28;19951;-86
2022/05/30 12:40:02;;;;;;;;;;;;;;;;;;4983408;28;20282;-85
2022/05/30 12:42:34;;;;;;;;;;;;;;;;;;4999661;28;19909;-85
2022/05/30 12:44:59;;;;;;;;;;;;;;;;;;5007350;28;19971;-84
2022/05/30 12:47:25;;;;;;;;;;;;;;;;;;5020064;28;19973;-84
2022/05/30 12:49:50;;;;;;;;;;;;;;;;;;4999885;28;20291;-85
2022/05/30 12:52:17;;;;;;;;;;;;;;;;;;5008613;28;20408;-84
2022/05/30 12:54:43;;;;;;;;;;;;;;;;;;5006372;28;19968;-84
2022/05/30 12:57:08;;;;;;;;;;;;;;;;;;5005980;28;19937;-84
2022/05/30 12:59:34;;;;;;;;;;;;;;;;;;4995232;28;19913;-84
2022/05/30 13:01:59;;;;;;;;;;;;;;;;;;5021671;28;19920;-84
2022/05/30 13:04:25;;;;;;;;;;;;;;;;;;5018087;28;20279;-84
2022/05/30 13:06:50;;;;;;;;;;;;;;;;;;5025334;28;19914;-85
2022/05/30 13:09:16;;;;;;;;;;;;;;;;;;4996671;28;19935;-84
2022/05/30 13:11:41;;;;;;;;;;;;;;;;;;5039844;28;20108;-84
2022/05/30 13:14:07;;;;;;;;;;;;;;;;;;4968215;28;19910;-85
2022/05/30 13:16:32;;;;;;;;;;;;;;;;;;4999564;28;19913;-84
2022/05/30 13:18:58;;;;;;;;;;;;;;;;;;4984657;28;20327;-82
2022/05/30 13:21:24;;;;;;;;;;;;;;;;;;5026514;28;19916;-84
2022/05/30 13:23:50;;;;;;;;;;;;;;;;;;5018252;28;20402;-84
2022/05/30 13:26:16;;;;;;;;;;;;;;;;;;4986573;28;19909;-83
2022/05/30 13:28:41;;;;;;;;;;;;;;;;;;5003402;28;20383;-84
2022/05/30 13:31:08;;;;;;;;;;;;;;;;;;5027974;28;19935;-83
2022/05/30 13:33:34;;;;;;;;;;;;;;;;;;5016682;28;19909;-84
2022/05/30 13:35:59;;;;;;;;;;;;;;;;;;5048617;28;20006;-84
2022/05/30 13:38:24;;;;;;;;;;;;;;;;;;4986978;28;19913;-84
2022/05/30 13:40:50;;;;;;;;;;;;;;;;;;5013076;28;19959;-84
2022/05/30 13:43:15;;;;;;;;;;;;;;;;;;5026168;28;20358;-83
2022/05/30 13:45:41;;;;;;;;;;;;;;;;;;5021270;28;19916;-84
2022/05/30 13:48:06;;;;;;;;;;;;;;;;;;5019528;28;19904;-82
2022/05/30 13:50:35;;;;;;;;;;;;;;;;;;5011064;28;19917;-85
2022/05/30 13:53:06;;;;;;;;;;;;;;;;;;5024818;28;19912;-83
2022/05/30 13:55:35;;;;;;;;;;;;;;;;;;5008228;28;19982;-84
2022/05/30 13:58:00;;;;;;;;;;;;;;;;;;4983425;28;19916;-83
2022/05/30 14:00:30;;;;;;;;;;;;;;;;;;4988111;28;19991;-83
2022/05/30 14:02:56;;;;;;;;;;;;;;;;;;4991109;28;19965;-83
2022/05/30 14:05:21;;;;;;;;;;;;;;;;;;5008932;28;20326;-82
2022/05/30 14:07:48;;;;;;;;;;;;;;;;;;5034341;28;19959;-85
2022/05/30 14:10:13;;;;;;;;;;;;;;;;;;4980986;28;20386;-85
2022/05/30 14:12:41;;;;;;;;;;;;;;;;;;5006718;28;19909;-85
2022/05/30 14:15:07;;;;;;;;;;;;;;;;;;5009577;28;19909;-84
2022/05/30 14:17:33;;;;;;;;;;;;;;;;;;5021610;28;19959;-84
2022/05/30 14:19:59;;;;;;;;;;;;;;;;;;5001003;28;19913;-84
2022/05/30 14:22:25;;;;;;;;;;;;;;;;;;5013413;28;19974;-82
2022/05/30 14:24:59;;;;;;;;;;;;;;;;;;5032965;28;19955;-83
2022/05/30 14:27:24;;;;;;;;;;;;;;;;;;5031610;28;19910;-83
2022/05/30 14:29:52;;;;;;;;;;;;;;;;;;5013671;28;19909;-83
2022/05/30 14:32:17;;;;;;;;;;;;;;;;;;5019733;28;19913;-85
2022/05/30 14:34:42;;;;;;;;;;;;;;;;;;5025801;28;19909;-84
2022/05/30 14:37:08;;;;;;;;;;;;;;;;;;4992324;28;19909;-81
2022/05/30 14:39:33;;;;;;;;;;;;;;;;;;5010182;28;20375;-84
2022/05/30 14:41:59;;;;;;;;;;;;;;;;;;5014748;28;20410;-83
2022/05/30 14:44:24;;;;;;;;;;;;;;;;;;5017561;28;20291;-83
2022/05/30 14:46:51;;;;;;;;;;;;;;;;;;4988661;28;19909;-84
2022/05/30 14:49:16;;;;;;;;;;;;;;;;;;5028048;28;20314;-84
2022/05/30 14:51:42;;;;;;;;;;;;;;;;;;5020560;28;19953;-84
2022/05/30 14:54:08;;;;;;;;;;;;;;;;;;4997310;28;19979;-83
2022/05/30 14:56:33;;;;;;;;;;;;;;;;;;5008716;28;20337;-85
2022/05/30 14:58:59;;;;;;;;;;;;;;;;;;4986959;28;19909;-83
2022/05/30 15:01:24;;;;;;;;;;;;;;;;;;5003519;28;19913;-83
2022/05/30 15:06:34;;;;;;;;;;;;;;;;;;4987769;28;19970;-83
2022/05/30 15:08:59;;;;;;;;;;;;;;;;;;5006051;28;20373;-85
2022/05/30 15:11:25;;;;;;;;;;;;;;;;;;4964510;28;19924;-84
2022/05/30 15:13:50;;;;;;;;;;;;;;;;;;4994551;28;19935;-83
2022/05/30 15:16:15;;;;;;;;;;;;;;;;;;5044758;28;19963;-85
2022/05/30 15:18:41;;;;;;;;;;;;;;;;;;5027543;28;19931;-83
2022/05/30 15:21:07;;;;;;;;;;;;;;;;;;5011274;28;20043;-84
2022/05/30 15:23:32;;;;;;;;;;;;;;;;;;4984494;28;20325;-82
2022/05/30 15:25:58;;;;;;;;;;;;;;;;;;4996176;28;19909;-83
2022/05/30 15:28:23;;;;;;;;;;;;;;;;;;4982547;28;19909;-83
2022/05/30 15:30:48;;;;;;;;;;;;;;;;;;4994484;28;20369;-84
2022/05/30 15:33:14;;;;;;;;;;;;;;;;;;5006139;28;19924;-83
2022/05/30 15:35:40;;;;;;;;;;;;;;;;;;4986201;28;20329;-83
2022/05/30 15:38:05;;;;;;;;;;;;;;;;;;4986432;28;19914;-83
2022/05/30 15:40:31;;;;;;;;;;;;;;;;;;4987143;28;19905;-83
2022/05/30 15:42:56;;;;;;;;;;;;;;;;;;4989494;28;20277;-83
2022/05/30 15:45:23;;;;;;;;;;;;;;;;;;4985245;28;20044;-84
2022/05/30 15:47:48;;;;;;;;;;;;;;;;;;4994663;28;19991;-84
2022/05/30 15:50:14;;;;;;;;;;;;;;;;;;4988682;28;20471;-85
2022/05/30 15:58:08;;;;;;;;;;;;;;;;;;4996602;28;20000;-83
2022/05/30 16:00:34;;;;;;;;;;;;;;;;;;4999722;28;20047;-84
2022/05/30 16:02:59;;;;;;;;;;;;;;;;;;5015513;28;19951;-86
2022/05/30 16:05:24;;;;;;;;;;;;;;;;;;4988069;28;19920;-85
2022/05/30 16:07:56;;;;;;;;;;;;;;;;;;5008081;28;19909;-83
2022/05/30 16:10:23;;;;;;;;;;;;;;;;;;5009822;28;19913;-84
2022/05/30 16:12:48;;;;;;;;;;;;;;;;;;4969831;28;19910;-86
2022/05/30 16:15:14;;;;;;;;;;;;;;;;;;4976029;28;19958;-86
2022/05/30 16:17:40;;;;;;;;;;;;;;;;;;5020137;28;20399;-84
2022/05/30 16:20:07;;;;;;;;;;;;;;;;;;5034195;28;19909;-84
2022/05/30 16:22:33;;;;;;;;;;;;;;;;;;5005573;28;19909;-84
2022/05/30 16:24:58;;;;;;;;;;;;;;;;;;5008234;28;19909;-84
2022/05/30 16:27:24;;;;;;;;;;;;;;;;;;5028871;28;20063;-85
2022/05/30 16:29:49;;;;;;;;;;;;;;;;;;5032479;28;20003;-84
2022/05/30 16:32:15;;;;;;;;;;;;;;;;;;4986159;28;19920;-84
2022/05/30 16:34:41;;;;;;;;;;;;;;;;;;4993014;28;19928;-84
2022/05/30 16:37:06;;;;;;;;;;;;;;;;;;5012316;28;19990;-84
2022/05/30 16:39:33;;;;;;;;;;;;;;;;;;5020428;28;19909;-85
2022/05/30 16:42:00;;;;;;;;;;;;;;;;;;5002716;28;19991;-85
2022/05/30 16:44:25;;;;;;;;;;;;;;;;;;5072202;28;19979;-85
2022/05/30 16:46:51;;;;;;;;;;;;;;;;;;5030869;28;19909;-85
2022/05/30 16:49:16;;;;;;;;;;;;;;;;;;5016643;28;19909;-84
2022/05/30 16:51:42;;;;;;;;;;;;;;;;;;5033987;28;19909;-85
2022/05/30 16:54:07;;;;;;;;;;;;;;;;;;5013541;28;19913;-84
2022/05/30 16:56:33;;;;;;;;;;;;;;;;;;5010034;28;19909;-83
2022/05/30 16:59:07;;;;;;;;;;;;;;;;;;5011316;28;19909;-83
2022/05/30 17:01:33;;;;;;;;;;;;;;;;;;5000270;28;19909;-85
2022/05/30 17:04:01;;;;;;;;;;;;;;;;;;5029383;28;19928;-84
2022/05/30 17:06:27;;;;;;;;;;;;;;;;;;5013890;28;19909;-84
2022/05/30 17:08:54;;;;;;;;;;;;;;;;;;5022794;28;19971;-84
2022/05/30 17:11:19;;;;;;;;;;;;;;;;;;5021620;28;19972;-84
2022/05/30 17:13:50;;;;;;;;;;;;;;;;;;5050680;28;19971;-83
2022/05/30 17:16:20;;;;;;;;;;;;;;;;;;5010779;28;20000;-85
2022/05/30 17:18:45;;;;;;;;;;;;;;;;;;5028811;28;19920;-85
2022/05/30 17:21:11;;;;;;;;;;;;;;;;;;5039943;28;19908;-85
2022/05/30 17:23:40;;;;;;;;;;;;;;;;;;5012577;28;19984;-85
2022/05/30 17:26:06;;;;;;;;;;;;;;;;;;5042790;28;19909;-84
2022/05/30 17:31:25;;;;;;;;;;;;;;;;;;5034732;28;20348;-84
2022/05/30 17:34:06;;;;;;;;;;;;;;;;;;5037867;28;19923;-85
2022/05/30 17:36:42;;;;;;;;;;;;;;;;;;5036690;28;20360;-85
2022/05/30 17:39:15;;;;;;;;;;;;;;;;;;5038336;28;19913;-83
2022/05/30 17:41:48;;;;;;;;;;;;;;;;;;5004991;28;19976;-86